TimeCST,TemperatureF,Dew PointF,Humidity,Sea Level PressureIn,VisibilityMPH,Wind Direction,Wind SpeedMPH,Gust SpeedMPH,PrecipitationIn,Events,Conditions,WindDirDegrees,DateUTC
12:14 AM,6.8,-7.6,52,29.68,10.0,NNW,20.7,29.9,N/A,,Clear,330,2014-01-25 06:14:00
12:35 AM,6.8,-9.4,48,29.70,10.0,NNW,17.3,21.9,N/A,,Clear,330,2014-01-25 06:35:00
12:53 AM,5.0,-9.4,52,29.70,10.0,NNW,17.3,24.2,N/A,,Clear,330,2014-01-25 06:53:00
1:15 AM,5.0,-9.4,52,29.71,10.0,NNW,15.0,23.0,N/A,,Clear,330,2014-01-25 07:15:00
1:35 AM,3.2,-9.4,56,29.72,10.0,NNW,18.4,23.0,N/A,,Clear,330,2014-01-25 07:35:00
1:52 AM,3.2,-9.4,56,29.73,10.0,NW,17.3,27.6,N/A,,Clear,320,2014-01-25 07:52:00
2:15 AM,1.4,-11.2,56,29.75,10.0,NW,10.4,23.0,N/A,,Clear,320,2014-01-25 08:15:00
2:35 AM,1.4,-11.2,56,29.76,10.0,NW,15.0,18.4,N/A,,Clear,310,2014-01-25 08:35:00
2:53 AM,-0.4,-11.2,60,29.76,10.0,WNW,12.7,-,N/A,,Clear,300,2014-01-25 08:53:00
3:14 AM,-0.4,-11.2,60,29.77,10.0,NW,12.7,20.7,N/A,,Clear,310,2014-01-25 09:14:00
3:35 AM,-0.4,-9.4,66,29.77,10.0,NW,20.7,27.6,N/A,,Clear,310,2014-01-25 09:35:00
3:53 AM,-2.2,-9.4,71,29.78,10.0,NW,18.4,25.3,N/A,,Clear,310,2014-01-25 09:53:00
4:15 AM,-2.2,-9.4,71,29.79,10.0,NW,18.4,26.5,N/A,,Clear,320,2014-01-25 10:15:00
4:35 AM,-2.2,-9.4,71,29.80,10.0,NW,16.1,26.5,N/A,,Clear,320,2014-01-25 10:35:00
4:52 AM,-2.2,-9.4,71,29.81,10.0,NW,17.3,23.0,N/A,,Clear,320,2014-01-25 10:52:00
5:15 AM,-2.2,-9.4,71,29.82,10.0,NW,19.6,26.5,N/A,,Clear,320,2014-01-25 11:15:00
5:35 AM,-2.2,-9.4,71,29.82,10.0,NW,16.1,25.3,N/A,,Clear,320,2014-01-25 11:35:00
5:53 AM,-4.0,-9.4,78,29.82,10.0,NNW,18.4,24.2,N/A,,Clear,330,2014-01-25 11:53:00
6:15 AM,-4.0,-11.2,71,29.84,10.0,NW,15.0,20.7,N/A,,Clear,320,2014-01-25 12:15:00
6:35 AM,-5.8,-11.2,77,29.85,10.0,NW,13.8,-,N/A,,Clear,320,2014-01-25 12:35:00
6:53 AM,-5.8,-11.2,77,29.85,10.0,NW,12.7,-,N/A,,Clear,310,2014-01-25 12:53:00
7:15 AM,-5.8,-11.2,77,29.87,10.0,NW,13.8,18.4,N/A,,Clear,310,2014-01-25 13:15:00
7:35 AM,-7.6,-11.2,84,29.87,10.0,NW,13.8,-,N/A,,Clear,310,2014-01-25 13:35:00
7:53 AM,-7.6,-11.2,84,29.88,10.0,NW,16.1,-,N/A,,Clear,310,2014-01-25 13:53:00
8:15 AM,-7.6,-11.2,84,29.88,10.0,WNW,13.8,18.4,N/A,,Clear,300,2014-01-25 14:15:00
8:35 AM,-7.6,-11.2,84,29.89,10.0,WNW,13.8,-,N/A,,Clear,300,2014-01-25 14:35:00
8:52 AM,-5.8,-11.2,77,29.88,10.0,WNW,16.1,-,N/A,,Clear,300,2014-01-25 14:52:00
9:14 AM,-5.8,-11.2,77,29.88,10.0,WNW,13.8,-,N/A,,Clear,300,2014-01-25 15:14:00
9:35 AM,-5.8,-11.2,77,29.89,10.0,WNW,15.0,-,N/A,,Clear,300,2014-01-25 15:35:00
9:52 AM,-5.8,-11.2,77,29.90,10.0,WNW,13.8,20.7,N/A,,Clear,300,2014-01-25 15:52:00
10:15 AM,-5.8,-11.2,77,29.90,10.0,WNW,18.4,-,N/A,,Clear,300,2014-01-25 16:15:00
10:35 AM,-5.8,-13.0,71,29.91,10.0,WNW,15.0,20.7,N/A,,Clear,290,2014-01-25 16:35:00
10:53 AM,-4.0,-13.0,65,29.92,10.0,West,12.7,-,N/A,,Clear,280,2014-01-25 16:53:00
11:15 AM,-4.0,-13.0,65,29.92,10.0,WNW,12.7,18.4,N/A,,Clear,290,2014-01-25 17:15:00
11:34 AM,-4.0,-13.0,65,29.90,10.0,WNW,10.4,19.6,N/A,,Clear,290,2014-01-25 17:34:00
11:53 AM,-2.2,-13.0,60,29.89,10.0,WNW,16.1,-,N/A,,Clear,300,2014-01-25 17:53:00
12:15 PM,-2.2,-13.0,60,29.87,10.0,NW,17.3,21.9,N/A,,Clear,310,2014-01-25 18:15:00
12:35 PM,-2.2,-13.0,60,29.86,10.0,WNW,10.4,-,N/A,,Clear,300,2014-01-25 18:35:00
12:53 PM,-2.2,-14.8,55,29.85,10.0,WNW,10.4,-,N/A,,Clear,300,2014-01-25 18:53:00
1:15 PM,-0.4,-13.0,55,29.84,10.0,WNW,11.5,18.4,N/A,,Clear,290,2014-01-25 19:15:00
1:35 PM,-0.4,-13.0,55,29.83,10.0,WNW,10.4,-,N/A,,Clear,290,2014-01-25 19:35:00
1:52 PM,-0.4,-14.8,51,29.83,10.0,WNW,12.7,16.1,N/A,,Clear,300,2014-01-25 19:52:00
2:14 PM,-0.4,-14.8,51,29.82,10.0,WNW,12.7,16.1,N/A,,Clear,300,2014-01-25 20:14:00
2:34 PM,-0.4,-14.8,51,-9999,10.0,WNW,12.7,-,N/A,,Clear,300,2014-01-25 20:34:00
2:53 PM,-0.4,-14.8,51,29.80,10.0,WNW,9.2,-,N/A,,Clear,300,2014-01-25 20:53:00
3:14 PM,-0.4,-14.8,51,29.79,10.0,West,8.1,-,N/A,,Clear,280,2014-01-25 21:14:00
3:34 PM,1.4,-14.8,47,29.78,10.0,WNW,10.4,-,N/A,,Clear,300,2014-01-25 21:34:00
3:53 PM,1.4,-14.8,47,29.77,10.0,West,5.8,-,N/A,,Clear,280,2014-01-25 21:53:00
4:15 PM,1.4,-14.8,47,29.75,10.0,West,4.6,-,N/A,,Clear,270,2014-01-25 22:15:00
4:35 PM,-0.4,-11.2,60,29.75,10.0,WSW,8.1,-,N/A,,Clear,240,2014-01-25 22:35:00
4:52 PM,-0.4,-13.0,55,29.74,10.0,WSW,6.9,-,N/A,,Scattered Clouds,250,2014-01-25 22:52:00
5:14 PM,-0.4,-13.0,55,29.71,10.0,WSW,3.5,-,N/A,,Overcast,240,2014-01-25 23:14:00
5:35 PM,-0.4,-11.2,60,29.69,10.0,Calm,Calm,-,N/A,,Mostly Cloudy,0,2014-01-25 23:35:00
5:53 PM,-0.4,-9.4,66,29.67,10.0,South,4.6,-,N/A,,Overcast,180,2014-01-25 23:53:00
6:15 PM,-0.4,-9.4,66,29.67,10.0,SSW,5.8,-,N/A,,Overcast,210,2014-01-26 00:15:00
6:35 PM,-0.4,-11.2,60,29.65,10.0,SSW,5.8,-,N/A,,Overcast,200,2014-01-26 00:35:00
6:53 PM,-0.4,-9.4,66,29.64,10.0,South,3.5,-,N/A,,Overcast,180,2014-01-26 00:53:00
7:15 PM,-0.4,-7.6,72,29.62,2.0,South,5.8,-,N/A,Snow,Light Snow,180,2014-01-26 01:15:00
7:35 PM,-0.4,-5.8,78,29.62,1.8,South,8.1,-,N/A,Snow,Light Snow,190,2014-01-26 01:35:00
7:53 PM,-0.4,-5.8,78,29.60,1.8,South,6.9,-,N/A,Snow,Light Snow,180,2014-01-26 01:53:00
8:14 PM,-0.4,-5.8,78,29.59,0.8,South,5.8,-,N/A,Snow,Snow,170,2014-01-26 02:14:00
8:34 PM,-0.4,-5.8,78,29.57,0.8,SE,4.6,-,N/A,Snow,Snow,130,2014-01-26 02:34:00
8:53 PM,-0.4,-5.8,78,29.55,1.8,SE,6.9,-,N/A,Snow,Light Snow,130,2014-01-26 02:53:00
9:15 PM,-0.4,-5.8,78,29.53,2.0,ESE,5.8,-,N/A,Snow,Light Snow,110,2014-01-26 03:15:00
9:35 PM,-0.4,-5.8,78,29.51,3.0,ESE,8.1,-,N/A,Snow,Light Snow,120,2014-01-26 03:35:00
9:53 PM,-0.4,-5.8,78,29.50,3.0,ESE,6.9,-,N/A,Snow,Light Snow,120,2014-01-26 03:53:00
10:15 PM,-0.4,-4.0,85,29.48,5.0,ESE,8.1,-,N/A,Snow,Light Snow,110,2014-01-26 04:15:00
10:34 PM,-0.4,-4.0,85,29.46,7.0,East,8.1,-,N/A,Snow,Light Snow,100,2014-01-26 04:34:00
10:53 PM,-0.4,-4.0,85,29.45,10.0,East,8.1,-,N/A,Snow,Light Snow,90,2014-01-26 04:53:00
11:15 PM,-0.4,-4.0,85,29.43,10.0,East,8.1,-,N/A,Snow,Light Snow,100,2014-01-26 05:15:00
11:35 PM,-0.4,-4.0,85,29.43,4.0,East,6.9,-,N/A,Snow,Light Snow,100,2014-01-26 05:35:00
11:53 PM,-0.4,-4.0,85,29.41,2.0,East,6.9,-,N/A,Snow,Light Snow,100,2014-01-26 05:53:00